createdAt,value
2022-09-28T00:01:26.145Z,12.75
2022-09-28T00:03:59.838Z,12.71
2022-09-28T00:06:30.470Z,12.74
2022-09-28T00:08:58.746Z,12.74
2022-09-28T00:11:28.235Z,12.74
2022-09-28T00:14:03.649Z,12.70
2022-09-28T00:16:41.266Z,12.63
2022-09-28T00:19:08.675Z,12.72
2022-09-28T00:21:40.036Z,12.59
2022-09-28T00:24:17.814Z,12.59
2022-09-28T00:26:57.902Z,12.49
2022-09-28T00:29:39.141Z,12.66
2022-09-28T00:32:13.772Z,12.64
2022-09-28T00:34:46.701Z,12.59
2022-09-28T00:37:15.379Z,12.48
2022-09-28T00:39:43.432Z,12.46
2022-09-28T00:42:22.216Z,12.46
2022-09-28T00:44:58.089Z,12.37
2022-09-28T00:47:53.622Z,12.49
2022-09-28T00:50:36.471Z,12.38
2022-09-28T00:53:18.349Z,12.33
2022-09-28T00:55:58.851Z,12.14
2022-09-28T00:58:33.473Z,12.35
2022-09-28T01:01:01.039Z,12.36
2022-09-28T01:03:29.726Z,12.32
2022-09-28T01:06:02.273Z,12.38
2022-09-28T01:08:32.737Z,12.47
2022-09-28T01:11:00.976Z,12.48
2022-09-28T01:13:31.488Z,12.51
2022-09-28T01:17:02.712Z,12.44
2022-09-28T01:20:48.912Z,12.58
2022-09-28T01:24:31.145Z,12.67
2022-09-28T01:27:26.685Z,12.60
2022-09-28T01:30:09.229Z,12.62
2022-09-28T01:33:09.607Z,12.59
2022-09-28T01:36:06.004Z,12.57
2022-09-28T01:39:05.903Z,12.59
2022-09-28T01:41:36.527Z,12.66
2022-09-28T01:44:08.682Z,12.65
2022-09-28T01:46:48.240Z,12.70
2022-09-28T01:50:04.814Z,12.62
2022-09-28T01:52:53.704Z,12.59
2022-09-28T01:55:47.149Z,12.66
2022-09-28T01:59:02.659Z,12.57
2022-09-28T02:01:54.537Z,12.70
2022-09-28T02:04:53.895Z,12.58
2022-09-28T02:07:44.954Z,12.64
2022-09-28T02:10:22.463Z,12.56
2022-09-28T02:13:02.624Z,12.72
2022-09-28T02:16:04.352Z,12.67
2022-09-28T02:18:32.996Z,12.74
2022-09-28T02:21:19.753Z,12.65
2022-09-28T02:24:02.470Z,12.72
2022-09-28T02:26:41.996Z,12.61
2022-09-28T02:29:09.286Z,12.67
2022-09-28T02:31:36.766Z,12.62
2022-09-28T02:34:04.180Z,12.57
2022-09-28T02:36:33.026Z,12.49
2022-09-28T02:39:03.493Z,12.47
2022-09-28T02:42:07.456Z,12.45
2022-09-28T02:45:26.078Z,12.52
2022-09-28T02:49:10.398Z,12.52
2022-09-28T02:52:13.679Z,12.63
2022-09-28T02:55:17.397Z,12.64
2022-09-28T02:58:25.120Z,12.69
2022-09-28T03:02:04.064Z,12.66
2022-09-28T03:04:53.667Z,12.56
2022-09-28T03:07:44.532Z,12.67
2022-09-28T03:10:48.819Z,12.69
2022-09-28T03:13:16.745Z,12.62
2022-09-28T03:15:48.578Z,12.66
2022-09-28T03:18:16.926Z,12.63
2022-09-28T03:20:44.518Z,12.64
2022-09-28T03:23:24.314Z,12.71
2022-09-28T03:25:52.386Z,12.65
2022-09-28T03:28:21.259Z,12.71
2022-09-28T03:30:48.655Z,12.64
2022-09-28T03:33:16.030Z,12.71
2022-09-28T03:35:48.461Z,12.53
2022-09-28T03:38:18.551Z,12.46
2022-09-28T03:41:00.718Z,12.52
2022-09-28T03:43:29.994Z,12.49
2022-09-28T03:46:02.507Z,12.43
2022-09-28T03:48:35.108Z,12.35
2022-09-28T03:51:09.248Z,12.26
2022-09-28T03:53:37.336Z,12.41
2022-09-28T03:56:15.335Z,12.43
2022-09-28T03:58:43.104Z,12.40
2022-09-28T04:01:18.418Z,12.43
2022-09-28T04:03:47.012Z,12.44
2022-09-28T04:06:15.146Z,12.37
2022-09-28T04:08:43.379Z,12.42
2022-09-28T04:11:10.892Z,12.46
2022-09-28T04:13:38.224Z,12.44
2022-09-28T04:16:05.995Z,12.46
2022-09-28T04:18:33.785Z,12.38
2022-09-28T04:21:07.228Z,12.48
2022-09-28T04:23:37.413Z,12.47
2022-09-28T04:26:17.420Z,12.52
2022-09-28T04:29:16.465Z,12.50
2022-09-28T04:31:51.959Z,12.42
2022-09-28T04:34:22.665Z,12.47
2022-09-28T04:36:50.477Z,12.53
2022-09-28T04:39:19.510Z,12.49
2022-09-28T04:41:49.535Z,12.51
2022-09-28T04:44:16.958Z,12.56
2022-09-28T04:46:46.309Z,12.52
2022-09-28T04:49:13.716Z,12.55
2022-09-28T04:51:41.001Z,12.53
2022-09-28T04:54:08.265Z,12.62
2022-09-28T04:56:35.569Z,12.50
2022-09-28T04:59:02.916Z,12.65
2022-09-28T05:01:30.420Z,12.65
2022-09-28T05:03:57.858Z,12.62
2022-09-28T05:06:27.994Z,12.62
2022-09-28T05:08:57.346Z,12.58
2022-09-28T05:11:24.855Z,12.51
2022-09-28T05:13:52.137Z,12.64
2022-09-28T05:16:20.480Z,12.63
2022-09-28T05:18:48.000Z,12.50
2022-09-28T05:21:16.242Z,12.59
2022-09-28T05:23:47.716Z,12.62
2022-09-28T05:26:15.282Z,12.65
2022-09-28T05:28:43.065Z,12.61
2022-09-28T05:31:10.559Z,12.74
2022-09-28T05:33:38.347Z,12.60
2022-09-28T05:36:11.495Z,12.55
2022-09-28T05:38:38.829Z,12.59
2022-09-28T05:41:06.974Z,12.61
2022-09-28T05:43:34.661Z,12.48
2022-09-28T05:46:01.993Z,12.63
2022-09-28T05:48:30.948Z,12.77
2022-09-28T05:50:59.543Z,12.77
2022-09-28T05:53:26.901Z,12.77
2022-09-28T05:55:59.424Z,12.79
2022-09-28T05:58:28.138Z,12.77
2022-09-28T06:00:57.747Z,12.77
2022-09-28T06:03:25.854Z,12.81
2022-09-28T06:05:53.408Z,12.85
2022-09-28T06:08:21.197Z,12.85
2022-09-28T06:10:52.128Z,12.87
2022-09-28T06:13:19.986Z,12.89
2022-09-28T06:15:47.248Z,12.89
2022-09-28T06:18:15.098Z,12.93
2022-09-28T06:20:43.185Z,13.02
2022-09-28T06:23:13.368Z,12.82
2022-09-28T06:25:40.795Z,12.90
2022-09-28T06:28:14.221Z,12.92
2022-09-28T06:30:43.188Z,12.86
2022-09-28T06:33:15.012Z,13.02
2022-09-28T06:35:42.649Z,13.01
2022-09-28T06:38:10.997Z,13.04
2022-09-28T06:40:38.960Z,13.01
2022-09-28T06:43:15.047Z,13.17
2022-09-28T06:45:43.819Z,12.74
2022-09-28T06:48:11.947Z,12.77
2022-09-28T06:50:42.048Z,12.69
2022-09-28T06:53:13.722Z,12.64
2022-09-28T06:55:49.852Z,12.64
2022-09-28T06:58:20.863Z,12.51
2022-09-28T07:00:51.768Z,12.44
2022-09-28T07:03:22.936Z,12.48
2022-09-28T07:05:56.175Z,12.53
2022-09-28T07:08:26.048Z,12.48
2022-09-28T07:10:57.666Z,12.41
2022-09-28T07:16:16.643Z,12.53
2022-09-28T07:18:43.936Z,12.48
2022-09-28T07:21:24.349Z,12.43
2022-09-28T07:23:55.812Z,12.43
2022-09-28T07:26:24.563Z,12.48
2022-09-28T07:28:52.643Z,12.61
2022-09-28T07:31:20.171Z,12.49
2022-09-28T07:33:51.335Z,12.35
2022-09-28T07:36:20.960Z,12.38
2022-09-28T07:38:48.338Z,12.48
2022-09-28T07:41:21.544Z,12.59
2022-09-28T07:43:49.846Z,12.49
2022-09-28T07:46:17.672Z,12.41
2022-09-28T07:48:45.923Z,12.35
2022-09-28T07:51:14.513Z,12.57
2022-09-28T07:53:41.811Z,12.53
2022-09-28T07:56:09.896Z,12.45
2022-09-28T07:58:39.529Z,12.43
2022-09-28T08:01:14.885Z,12.41
2022-09-28T08:03:47.123Z,12.35
2022-09-28T08:06:18.435Z,12.35
2022-09-28T08:08:45.808Z,12.28
2022-09-28T08:11:17.814Z,12.26
2022-09-28T08:13:46.481Z,12.32
2022-09-28T08:16:13.938Z,12.29
2022-09-28T08:18:42.129Z,12.26
2022-09-28T08:21:29.407Z,12.31
2022-09-28T08:23:57.016Z,12.28
2022-09-28T08:26:24.634Z,12.27
2022-09-28T08:28:51.926Z,12.19
2022-09-28T08:31:19.295Z,12.22
2022-09-28T08:33:46.600Z,12.35
2022-09-28T08:36:14.047Z,12.23
2022-09-28T08:38:43.028Z,12.42
2022-09-28T08:41:43.670Z,12.45
2022-09-28T08:44:24.740Z,12.44
2022-09-28T08:47:06.257Z,12.40
2022-09-28T08:49:47.820Z,12.41
2022-09-28T08:52:28.241Z,12.37
2022-09-28T08:55:32.924Z,12.35
2022-09-28T08:58:18.360Z,12.51
2022-09-28T09:00:54.346Z,12.49
2022-09-28T09:03:42.380Z,12.51
2022-09-28T09:06:58.681Z,12.49
2022-09-28T09:10:18.480Z,12.60
2022-09-28T09:13:25.638Z,12.56
2022-09-28T09:16:51.190Z,12.49
2022-09-28T09:19:59.561Z,12.61
2022-09-28T09:23:10.523Z,12.72
2022-09-28T09:25:55.106Z,12.72
2022-09-28T09:29:06.049Z,12.76
2022-09-28T09:32:24.947Z,12.77
2022-09-28T09:35:30.867Z,12.75
2022-09-28T09:38:58.232Z,12.84
2022-09-28T09:42:23.596Z,12.89
2022-09-28T09:45:43.382Z,12.85
2022-09-28T09:48:31.055Z,12.92
2022-09-28T09:51:12.951Z,13.01
2022-09-28T09:54:00.048Z,12.96
2022-09-28T09:57:13.041Z,12.95
2022-09-28T09:59:44.516Z,12.87
2022-09-28T10:02:34.882Z,12.79
2022-09-28T10:05:23.984Z,12.65
2022-09-28T10:08:09.232Z,12.72
2022-09-28T10:11:13.124Z,12.78
2022-09-28T10:13:44.146Z,12.85
2022-09-28T10:16:11.581Z,12.80
2022-09-28T10:18:39.084Z,12.66
2022-09-28T10:21:06.930Z,12.59
2022-09-28T10:23:37.828Z,12.56
2022-09-28T10:26:35.655Z,12.50
2022-09-28T10:29:15.810Z,12.48
2022-09-28T10:31:55.669Z,12.64
2022-09-28T10:34:30.813Z,12.74
2022-09-28T10:37:11.079Z,12.62
2022-09-28T10:39:53.891Z,12.46
2022-09-28T10:42:33.553Z,12.53
2022-09-28T10:45:22.203Z,12.63
2022-09-28T10:47:51.319Z,12.66
2022-09-28T10:50:27.987Z,12.62
2022-09-28T10:53:24.427Z,12.78
2022-09-28T10:56:18.781Z,12.70
2022-09-28T10:58:46.566Z,12.75
2022-09-28T11:01:34.459Z,12.50
2022-09-28T11:04:10.453Z,12.67
2022-09-28T11:06:40.355Z,12.76
2022-09-28T11:09:33.244Z,12.30
2022-09-28T11:12:05.967Z,12.34
2022-09-28T11:14:42.855Z,12.18
2022-09-28T11:17:41.949Z,12.21
2022-09-28T11:20:28.605Z,12.13
2022-09-28T11:23:30.051Z,12.22
2022-09-28T11:26:08.690Z,12.33
2022-09-28T11:28:39.036Z,12.20
2022-09-28T11:31:08.155Z,12.26
2022-09-28T11:33:46.745Z,12.25
2022-09-28T11:36:13.822Z,12.25
2022-09-28T11:38:48.540Z,12.16
2022-09-28T11:42:16.106Z,12.17
2022-09-28T11:44:46.936Z,12.27
2022-09-28T11:47:51.374Z,12.47
2022-09-28T11:50:51.416Z,12.49
2022-09-28T11:53:30.245Z,12.43
2022-09-28T11:56:40.037Z,12.36
2022-09-28T11:59:42.525Z,12.28
2022-09-28T12:02:44.120Z,12.60
2022-09-28T12:05:57.126Z,12.60
2022-09-28T12:08:54.513Z,12.50
2022-09-28T12:11:38.597Z,12.71
2022-09-28T12:14:38.192Z,12.67
2022-09-28T12:17:32.401Z,12.57
2022-09-28T12:20:29.479Z,12.64
2022-09-28T12:22:59.305Z,12.70
2022-09-28T12:25:36.855Z,12.79
2022-09-28T12:28:32.281Z,12.80
2022-09-28T12:31:24.613Z,12.84
2022-09-28T12:33:53.384Z,12.86
2022-09-28T12:37:18.729Z,12.88
2022-09-28T12:40:03.713Z,12.96
2022-09-28T12:43:40.594Z,12.91
2022-09-28T12:46:28.770Z,12.93
2022-09-28T12:53:16.770Z,12.89
2022-09-28T12:56:18.106Z,12.91
2022-09-28T12:59:30.889Z,12.86
2022-09-28T13:02:43.359Z,13.05
2022-09-28T13:05:57.760Z,12.71
2022-09-28T13:08:49.644Z,12.91
2022-09-28T13:12:13.353Z,12.81
2022-09-28T13:15:29.232Z,12.99
2022-09-28T13:18:12.460Z,12.90
2022-09-28T13:21:13.443Z,12.85
2022-09-28T13:23:49.420Z,12.82
2022-09-28T13:26:37.871Z,12.87
2022-09-28T13:29:19.220Z,12.90
2022-09-28T13:31:58.982Z,12.95
2022-09-28T13:34:33.378Z,12.93
2022-09-28T13:37:21.776Z,12.78
2022-09-28T13:39:56.334Z,12.99
2022-09-28T13:43:06.757Z,12.97
2022-09-28T13:45:54.701Z,12.89
2022-09-28T13:49:11.273Z,13.00
2022-09-28T13:52:12.559Z,12.90
2022-09-28T13:55:09.813Z,13.08
2022-09-28T13:58:29.841Z,13.14
2022-09-28T14:01:17.627Z,13.04
2022-09-28T14:04:21.927Z,13.10
2022-09-28T14:07:36.163Z,12.99
2022-09-28T14:10:51.946Z,12.96
2022-09-28T14:13:41.288Z,13.01
2022-09-28T14:16:26.789Z,13.11
2022-09-28T14:19:18.189Z,13.16
2022-09-28T14:22:48.986Z,13.16
2022-09-28T14:25:32.100Z,13.17
2022-09-28T14:28:56.217Z,13.15
2022-09-28T14:31:29.344Z,13.30
2022-09-28T14:34:02.028Z,13.00
2022-09-28T14:37:06.713Z,12.91
2022-09-28T14:39:55.685Z,12.93
2022-09-28T14:42:25.945Z,13.11
2022-09-28T14:45:07.871Z,13.02
2022-09-28T14:47:44.863Z,13.17
2022-09-28T14:50:28.170Z,13.11
2022-09-28T14:53:05.921Z,13.01
2022-09-28T14:56:00.512Z,13.04
2022-09-28T14:58:29.889Z,12.73
2022-09-28T15:01:07.468Z,12.63
2022-09-28T15:03:39.388Z,12.57
2022-09-28T15:06:06.901Z,12.74
2022-09-28T15:08:39.877Z,12.91
2022-09-28T15:11:19.903Z,12.94
2022-09-28T15:13:47.264Z,12.85
2022-09-28T15:16:17.541Z,12.86
2022-09-28T15:20:23.781Z,12.76
2022-09-28T15:22:59.019Z,12.88
2022-09-28T15:25:33.190Z,12.85
2022-09-28T15:28:22.142Z,12.92
2022-09-28T15:30:50.117Z,12.90
2022-09-28T15:33:53.383Z,12.93
2022-09-28T15:36:28.672Z,12.96
2022-09-28T15:39:34.784Z,12.95
2022-09-28T15:42:03.340Z,12.90
2022-09-28T15:44:36.546Z,12.99
2022-09-28T15:47:32.230Z,13.03
2022-09-28T15:50:21.315Z,12.81
2022-09-28T15:53:05.071Z,12.90
2022-09-28T15:55:42.383Z,12.84
2022-09-28T15:58:13.352Z,12.92
2022-09-28T16:00:40.717Z,12.93
2022-09-28T16:03:08.284Z,12.94
2022-09-28T16:05:58.955Z,12.86
2022-09-28T16:08:46.075Z,12.85
2022-09-28T16:11:31.809Z,12.86
2022-09-28T16:14:18.290Z,12.95
2022-09-28T16:16:51.227Z,12.87
2022-09-28T16:19:39.619Z,13.01
2022-09-28T16:22:17.926Z,12.82
2022-09-28T16:24:57.866Z,12.81
2022-09-28T16:27:45.941Z,12.69
2022-09-28T16:30:32.338Z,12.67
2022-09-28T16:33:29.192Z,12.71
2022-09-28T16:36:01.792Z,12.75
2022-09-28T16:38:29.128Z,12.85
2022-09-28T16:40:59.397Z,12.91
2022-09-28T16:43:31.188Z,12.70
2022-09-28T16:46:13.236Z,12.62
2022-09-28T16:48:50.256Z,12.82
2022-09-28T16:51:22.473Z,12.71
2022-09-28T16:54:08.365Z,12.79
2022-09-28T16:56:37.016Z,12.55
2022-09-28T16:59:04.725Z,12.71
2022-09-28T17:01:32.954Z,12.76
2022-09-28T17:04:00.304Z,12.81
2022-09-28T17:06:28.548Z,12.87
2022-09-28T17:08:56.672Z,12.77
2022-09-28T17:11:25.226Z,12.81
2022-09-28T17:13:56.768Z,12.75
2022-09-28T17:19:25.853Z,12.81
2022-09-28T17:21:53.548Z,12.79
2022-09-28T17:24:21.253Z,12.72
2022-09-28T17:26:51.809Z,12.82
2022-09-28T17:29:19.861Z,12.72
2022-09-28T17:31:48.123Z,12.77
2022-09-28T17:34:17.829Z,12.71
2022-09-28T17:36:45.584Z,12.72
2022-09-28T17:39:18.548Z,12.63
2022-09-28T17:41:46.472Z,12.66
2022-09-28T17:44:16.809Z,12.55
2022-09-28T17:46:49.438Z,12.49
2022-09-28T17:49:17.461Z,12.56
2022-09-28T17:51:44.820Z,12.41
2022-09-28T17:54:14.381Z,12.46
2022-09-28T17:56:42.616Z,12.52
2022-09-28T17:59:17.012Z,12.55
2022-09-28T18:01:44.457Z,12.57
2022-09-28T18:04:27.668Z,12.52
2022-09-28T18:07:04.259Z,12.49
2022-09-28T18:09:31.557Z,12.56
2022-09-28T18:12:04.092Z,12.41
2022-09-28T18:14:31.452Z,12.43
2022-09-28T18:16:58.747Z,12.44
2022-09-28T18:19:31.686Z,12.59
2022-09-28T18:21:59.608Z,12.46
2022-09-28T18:24:26.904Z,12.50
2022-09-28T18:26:54.208Z,12.56
2022-09-28T18:29:21.461Z,12.49
2022-09-28T18:31:48.856Z,12.43
2022-09-28T18:34:16.267Z,12.55
2022-09-28T18:36:43.597Z,12.52
2022-09-28T18:39:11.636Z,12.52
2022-09-28T18:41:38.950Z,12.59
2022-09-28T18:44:06.273Z,12.48
2022-09-28T18:46:36.595Z,12.43
2022-09-28T18:49:07.113Z,12.52
2022-09-28T18:51:34.417Z,12.59
2022-09-28T18:54:07.136Z,12.51
2022-09-28T18:56:37.291Z,12.48
2022-09-28T18:59:12.118Z,12.37
2022-09-28T19:01:41.802Z,12.52
2022-09-28T19:04:11.738Z,12.51
2022-09-28T19:06:42.769Z,12.50
2022-09-28T19:09:12.355Z,12.47
2022-09-28T19:11:39.786Z,12.47
2022-09-28T19:14:10.869Z,12.43
2022-09-28T19:16:38.171Z,12.44
2022-09-28T19:19:06.533Z,12.46
2022-09-28T19:21:33.876Z,12.41
2022-09-28T19:24:03.907Z,12.38
2022-09-28T19:26:33.071Z,12.41
2022-09-28T19:29:02.105Z,12.34
2022-09-28T19:31:30.983Z,12.35
2022-09-28T19:33:58.760Z,12.34
2022-09-28T19:36:28.574Z,12.41
2022-09-28T19:39:04.400Z,12.46
2022-09-28T19:41:44.152Z,12.36
2022-09-28T19:44:30.811Z,12.36
2022-09-28T19:47:08.829Z,12.44
2022-09-28T19:49:40.692Z,12.29
2022-09-28T19:52:17.426Z,12.29
2022-09-28T19:54:59.135Z,12.35
2022-09-28T19:57:32.591Z,12.33
2022-09-28T20:00:03.093Z,12.32
2022-09-28T20:02:31.086Z,12.33
2022-09-28T20:04:58.384Z,12.31
2022-09-28T20:07:25.737Z,12.26
2022-09-28T20:09:54.980Z,12.31
2022-09-28T20:12:22.417Z,12.30
2022-09-28T20:14:49.700Z,12.25
2022-09-28T20:17:17.043Z,12.27
2022-09-28T20:19:44.308Z,12.30
2022-09-28T20:22:12.181Z,12.37
2022-09-28T20:24:39.535Z,12.34
2022-09-28T20:27:06.948Z,12.33
2022-09-28T20:29:34.712Z,12.31
2022-09-28T20:32:03.969Z,12.31
2022-09-28T20:34:33.431Z,12.18
2022-09-28T20:37:00.784Z,12.32
2022-09-28T20:39:28.060Z,12.20
2022-09-28T20:41:56.249Z,12.20
2022-09-28T20:44:23.567Z,12.17
2022-09-28T20:46:52.263Z,12.26
2022-09-28T20:49:19.637Z,12.18
2022-09-28T20:51:47.052Z,12.30
2022-09-28T20:54:14.439Z,12.16
2022-09-28T20:56:41.852Z,12.17
2022-09-28T20:59:12.062Z,12.07
2022-09-28T21:01:40.588Z,12.17
2022-09-28T21:04:10.449Z,12.08
2022-09-28T21:06:41.912Z,12.16
2022-09-28T21:09:11.457Z,12.11
2022-09-28T21:11:41.746Z,12.13
2022-09-28T21:14:10.336Z,12.13
2022-09-28T21:16:38.225Z,12.10
2022-09-28T21:19:05.836Z,12.07
2022-09-28T21:21:33.205Z,12.16
2022-09-28T21:24:00.713Z,12.02
2022-09-28T21:26:31.227Z,11.97
2022-09-28T21:29:05.492Z,12.03
2022-09-28T21:31:45.664Z,12.08
2022-09-28T21:34:21.252Z,12.01
2022-09-28T21:36:54.391Z,12.01
2022-09-28T21:39:22.157Z,12.03
2022-09-28T21:41:49.515Z,12.00
2022-09-28T21:44:17.861Z,11.96
2022-09-28T21:46:45.183Z,11.93
2022-09-28T21:49:14.200Z,11.96
2022-09-28T21:51:41.607Z,11.84
2022-09-28T21:54:08.935Z,11.92
2022-09-28T21:56:36.220Z,11.96
2022-09-28T21:59:04.732Z,11.93
2022-09-28T22:01:32.260Z,11.88
2022-09-28T22:03:59.601Z,11.92
2022-09-28T22:06:28.248Z,11.93
2022-09-28T22:08:57.418Z,12.06
2022-09-28T22:11:28.748Z,12.01
2022-09-28T22:14:00.656Z,12.00
2022-09-28T22:16:31.164Z,12.02
2022-09-28T22:18:59.870Z,12.02
2022-09-28T22:21:34.876Z,12.00
2022-09-28T22:24:07.101Z,12.03
2022-09-28T22:26:37.293Z,12.05
2022-09-28T22:29:09.196Z,11.99
2022-09-28T22:31:40.805Z,12.01
2022-09-28T22:34:09.457Z,12.01
2022-09-28T22:36:36.952Z,11.98
2022-09-28T22:39:05.899Z,11.98
2022-09-28T22:41:33.505Z,11.97
2022-09-28T22:44:01.343Z,11.91
2022-09-28T22:46:32.497Z,11.97
2022-09-28T22:49:00.791Z,11.97
2022-09-28T22:51:30.677Z,11.92
2022-09-28T22:53:58.437Z,11.87
2022-09-28T22:56:25.853Z,11.93
2022-09-28T22:58:53.128Z,11.96
2022-09-28T23:01:30.099Z,11.86
2022-09-28T23:03:58.376Z,11.85
2022-09-28T23:06:30.732Z,11.82
2022-09-28T23:08:58.730Z,11.87
2022-09-28T23:11:27.837Z,11.88
2022-09-28T23:13:59.061Z,11.94
2022-09-28T23:16:28.048Z,11.92
2022-09-28T23:18:56.303Z,11.96
2022-09-28T23:21:27.713Z,11.90
2022-09-28T23:24:03.276Z,11.92
2022-09-28T23:26:35.137Z,11.87
2022-09-28T23:29:02.885Z,11.98
2022-09-28T23:31:33.266Z,11.92
2022-09-28T23:34:06.553Z,11.87
2022-09-28T23:36:34.899Z,11.86
2022-09-28T23:39:03.200Z,11.84
2022-09-28T23:41:31.657Z,11.84
2022-09-28T23:43:58.960Z,11.86
2022-09-28T23:46:26.310Z,11.97
2022-09-28T23:48:53.760Z,11.96
2022-09-28T23:51:21.272Z,11.94
2022-09-28T23:53:48.606Z,11.98
2022-09-28T23:56:16.764Z,11.93
2022-09-28T23:58:44.103Z,11.96
